sensor_id;sensor_type;location;lat;lon;timestamp;temperature;humidity
24384;DHT22;12504;52.870;8.798;2023-02-18T00:00:17;6.50;99.90
24384;DHT22;12504;52.870;8.798;2023-02-18T00:02:44;6.50;99.90
24384;DHT22;12504;52.870;8.798;2023-02-18T00:05:10;6.60;99.90
24384;DHT22;12504;52.870;8.798;2023-02-18T00:07:37;6.60;99.90
24384;DHT22;12504;52.870;8.798;2023-02-18T00:10:04;6.60;99.90
24384;DHT22;12504;52.870;8.798;2023-02-18T00:12:30;6.60;99.90
24384;DHT22;12504;52.870;8.798;2023-02-18T00:14:57;6.60;99.90
24384;DHT22;12504;52.870;8.798;2023-02-18T00:17:23;6.60;99.90
24384;DHT22;12504;52.870;8.798;2023-02-18T00:19:48;6.70;99.90
24384;DHT22;12504;52.870;8.798;2023-02-18T00:22:14;6.70;99.90
24384;DHT22;12504;52.870;8.798;2023-02-18T00:24:39;6.70;99.90
24384;DHT22;12504;52.870;8.798;2023-02-18T00:27:05;6.70;99.90
24384;DHT22;12504;52.870;8.798;2023-02-18T00:29:31;6.70;99.90
24384;DHT22;12504;52.870;8.798;2023-02-18T00:31:57;6.70;99.90
24384;DHT22;12504;52.870;8.798;2023-02-18T00:34:23;6.80;99.90
24384;DHT22;12504;52.870;8.798;2023-02-18T00:36:48;6.80;99.90
24384;DHT22;12504;52.870;8.798;2023-02-18T00:39:14;6.80;99.90
24384;DHT22;12504;52.870;8.798;2023-02-18T00:41:41;6.80;99.90
24384;DHT22;12504;52.870;8.798;2023-02-18T00:44:06;6.80;99.90
24384;DHT22;12504;52.870;8.798;2023-02-18T00:46:33;6.90;99.90
24384;DHT22;12504;52.870;8.798;2023-02-18T00:49:00;6.90;99.90
24384;DHT22;12504;52.870;8.798;2023-02-18T00:51:26;6.90;99.90
24384;DHT22;12504;52.870;8.798;2023-02-18T00:53:52;7.00;99.90
24384;DHT22;12504;52.870;8.798;2023-02-18T00:56:18;7.00;99.90
24384;DHT22;12504;52.870;8.798;2023-02-18T00:58:44;7.00;99.90
24384;DHT22;12504;52.870;8.798;2023-02-18T01:01:10;7.00;99.90
24384;DHT22;12504;52.870;8.798;2023-02-18T01:03:39;7.00;99.90
24384;DHT22;12504;52.870;8.798;2023-02-18T01:06:05;7.10;99.90
24384;DHT22;12504;52.870;8.798;2023-02-18T01:08:33;7.10;99.90
24384;DHT22;12504;52.870;8.798;2023-02-18T01:11:00;7.10;99.90
24384;DHT22;12504;52.870;8.798;2023-02-18T01:13:26;7.20;99.90
24384;DHT22;12504;52.870;8.798;2023-02-18T01:15:52;7.20;99.90
24384;DHT22;12504;52.870;8.798;2023-02-18T01:18:18;7.20;99.90
24384;DHT22;12504;52.870;8.798;2023-02-18T01:20:45;7.20;99.90
24384;DHT22;12504;52.870;8.798;2023-02-18T01:23:12;7.20;99.90
24384;DHT22;12504;52.870;8.798;2023-02-18T01:25:39;7.10;99.90
24384;DHT22;12504;52.870;8.798;2023-02-18T01:28:08;7.20;99.90
24384;DHT22;12504;52.870;8.798;2023-02-18T01:30:34;7.10;99.90
24384;DHT22;12504;52.870;8.798;2023-02-18T01:32:59;7.10;99.90
24384;DHT22;12504;52.870;8.798;2023-02-18T01:35:25;7.10;99.90
24384;DHT22;12504;52.870;8.798;2023-02-18T01:37:53;7.10;99.90
24384;DHT22;12504;52.870;8.798;2023-02-18T01:40:22;7.10;99.90
24384;DHT22;12504;52.870;8.798;2023-02-18T01:42:48;7.10;99.90
24384;DHT22;12504;52.870;8.798;2023-02-18T01:48:33;7.20;99.90
24384;DHT22;12504;52.870;8.798;2023-02-18T01:51:05;7.20;99.90
24384;DHT22;12504;52.870;8.798;2023-02-18T01:53:43;7.30;99.90
24384;DHT22;12504;52.870;8.798;2023-02-18T01:56:13;7.30;99.90
24384;DHT22;12504;52.870;8.798;2023-02-18T01:58:41;7.20;99.90
24384;DHT22;12504;52.870;8.798;2023-02-18T02:01:08;7.20;99.90
24384;DHT22;12504;52.870;8.798;2023-02-18T02:03:34;7.20;99.90
24384;DHT22;12504;52.870;8.798;2023-02-18T02:06:00;7.10;99.90
24384;DHT22;12504;52.870;8.798;2023-02-18T02:08:26;7.20;99.90
24384;DHT22;12504;52.870;8.798;2023-02-18T02:16:25;7.20;99.90
24384;DHT22;12504;52.870;8.798;2023-02-18T02:19:25;7.20;99.90
24384;DHT22;12504;52.870;8.798;2023-02-18T02:22:14;7.10;99.90
24384;DHT22;12504;52.870;8.798;2023-02-18T02:25:18;7.20;99.90
24384;DHT22;12504;52.870;8.798;2023-02-18T02:30:43;7.30;99.90
24384;DHT22;12504;52.870;8.798;2023-02-18T02:37:02;7.20;99.90
24384;DHT22;12504;52.870;8.798;2023-02-18T02:39:40;7.30;99.90
24384;DHT22;12504;52.870;8.798;2023-02-18T02:48:03;7.30;99.90
24384;DHT22;12504;52.870;8.798;2023-02-18T02:50:29;7.30;99.90
24384;DHT22;12504;52.870;8.798;2023-02-18T02:53:05;7.40;99.90
24384;DHT22;12504;52.870;8.798;2023-02-18T02:55:30;7.40;99.90
24384;DHT22;12504;52.870;8.798;2023-02-18T02:57:56;7.40;99.90
24384;DHT22;12504;52.870;8.798;2023-02-18T03:00:55;7.40;99.90
24384;DHT22;12504;52.870;8.798;2023-02-18T03:03:38;7.40;99.90
24384;DHT22;12504;52.870;8.798;2023-02-18T03:08:49;7.40;99.90
24384;DHT22;12504;52.870;8.798;2023-02-18T03:11:17;7.40;99.90
24384;DHT22;12504;52.870;8.798;2023-02-18T03:14:07;7.40;99.90
24384;DHT22;12504;52.870;8.798;2023-02-18T03:16:52;7.40;99.90
24384;DHT22;12504;52.870;8.798;2023-02-18T03:22:15;7.40;99.90
24384;DHT22;12504;52.870;8.798;2023-02-18T03:24:45;7.40;99.90
24384;DHT22;12504;52.870;8.798;2023-02-18T03:27:26;7.40;99.90
24384;DHT22;12504;52.870;8.798;2023-02-18T03:29:58;7.40;99.90
24384;DHT22;12504;52.870;8.798;2023-02-18T03:32:25;7.30;99.90
24384;DHT22;12504;52.870;8.798;2023-02-18T03:34:56;7.40;99.90
24384;DHT22;12504;52.870;8.798;2023-02-18T03:37:24;7.30;99.90
24384;DHT22;12504;52.870;8.798;2023-02-18T03:39:56;7.30;99.90
24384;DHT22;12504;52.870;8.798;2023-02-18T03:42:28;7.30;99.90
24384;DHT22;12504;52.870;8.798;2023-02-18T03:44:54;7.30;99.90
24384;DHT22;12504;52.870;8.798;2023-02-18T03:47:23;7.20;99.90
24384;DHT22;12504;52.870;8.798;2023-02-18T03:49:48;7.10;99.90
24384;DHT22;12504;52.870;8.798;2023-02-18T03:52:14;7.10;99.90
24384;DHT22;12504;52.870;8.798;2023-02-18T03:54:40;7.00;99.90
24384;DHT22;12504;52.870;8.798;2023-02-18T03:57:07;7.00;99.90
24384;DHT22;12504;52.870;8.798;2023-02-18T03:59:33;7.10;99.90
24384;DHT22;12504;52.870;8.798;2023-02-18T04:01:59;7.10;99.90
24384;DHT22;12504;52.870;8.798;2023-02-18T04:04:25;7.10;99.90
24384;DHT22;12504;52.870;8.798;2023-02-18T04:06:51;7.00;99.90
24384;DHT22;12504;52.870;8.798;2023-02-18T04:09:17;7.00;99.90
24384;DHT22;12504;52.870;8.798;2023-02-18T04:11:42;6.90;99.90
24384;DHT22;12504;52.870;8.798;2023-02-18T04:14:09;6.90;99.90
24384;DHT22;12504;52.870;8.798;2023-02-18T04:16:37;6.80;99.90
24384;DHT22;12504;52.870;8.798;2023-02-18T04:19:02;6.90;99.90
24384;DHT22;12504;52.870;8.798;2023-02-18T04:21:28;6.90;99.90
24384;DHT22;12504;52.870;8.798;2023-02-18T04:23:54;6.90;99.90
24384;DHT22;12504;52.870;8.798;2023-02-18T04:26:19;6.80;99.90
24384;DHT22;12504;52.870;8.798;2023-02-18T04:28:45;6.80;99.90
24384;DHT22;12504;52.870;8.798;2023-02-18T04:31:11;6.70;99.90
24384;DHT22;12504;52.870;8.798;2023-02-18T04:33:36;6.70;99.90
24384;DHT22;12504;52.870;8.798;2023-02-18T04:36:02;6.60;99.90
24384;DHT22;12504;52.870;8.798;2023-02-18T04:38:28;6.70;99.90
24384;DHT22;12504;52.870;8.798;2023-02-18T04:40:53;6.60;99.90
24384;DHT22;12504;52.870;8.798;2023-02-18T04:43:19;6.60;99.90
24384;DHT22;12504;52.870;8.798;2023-02-18T04:45:45;6.60;99.90
24384;DHT22;12504;52.870;8.798;2023-02-18T04:48:11;6.50;99.90
24384;DHT22;12504;52.870;8.798;2023-02-18T04:50:36;6.50;99.90
24384;DHT22;12504;52.870;8.798;2023-02-18T04:53:02;6.50;99.90
24384;DHT22;12504;52.870;8.798;2023-02-18T04:55:28;6.50;99.90
24384;DHT22;12504;52.870;8.798;2023-02-18T04:57:53;6.50;99.90
24384;DHT22;12504;52.870;8.798;2023-02-18T05:00:19;6.50;99.90
24384;DHT22;12504;52.870;8.798;2023-02-18T05:02:45;6.50;99.90
24384;DHT22;12504;52.870;8.798;2023-02-18T05:05:13;6.50;99.90
24384;DHT22;12504;52.870;8.798;2023-02-18T05:07:38;6.40;99.90
24384;DHT22;12504;52.870;8.798;2023-02-18T05:10:06;6.40;99.90
24384;DHT22;12504;52.870;8.798;2023-02-18T05:12:32;6.40;99.90
24384;DHT22;12504;52.870;8.798;2023-02-18T05:14:57;6.40;99.90
24384;DHT22;12504;52.870;8.798;2023-02-18T05:17:23;6.40;99.90
24384;DHT22;12504;52.870;8.798;2023-02-18T05:19:49;6.40;99.90
24384;DHT22;12504;52.870;8.798;2023-02-18T05:22:14;6.40;99.90
24384;DHT22;12504;52.870;8.798;2023-02-18T05:24:40;6.40;99.90
24384;DHT22;12504;52.870;8.798;2023-02-18T05:27:06;6.40;99.90
24384;DHT22;12504;52.870;8.798;2023-02-18T05:29:32;6.40;99.90
24384;DHT22;12504;52.870;8.798;2023-02-18T05:31:58;6.40;99.90
24384;DHT22;12504;52.870;8.798;2023-02-18T05:34:23;6.40;99.90
24384;DHT22;12504;52.870;8.798;2023-02-18T05:36:49;6.40;99.90
24384;DHT22;12504;52.870;8.798;2023-02-18T05:39:15;6.40;99.90
24384;DHT22;12504;52.870;8.798;2023-02-18T05:41:40;6.50;99.90
24384;DHT22;12504;52.870;8.798;2023-02-18T05:44:06;6.50;99.90
24384;DHT22;12504;52.870;8.798;2023-02-18T05:46:50;6.60;99.90
24384;DHT22;12504;52.870;8.798;2023-02-18T05:49:16;6.60;99.90
24384;DHT22;12504;52.870;8.798;2023-02-18T05:51:42;6.60;99.90
24384;DHT22;12504;52.870;8.798;2023-02-18T05:54:08;6.70;99.90
24384;DHT22;12504;52.870;8.798;2023-02-18T05:56:33;6.70;99.90
24384;DHT22;12504;52.870;8.798;2023-02-18T05:58:59;6.70;99.90
24384;DHT22;12504;52.870;8.798;2023-02-18T06:01:25;6.70;99.90
24384;DHT22;12504;52.870;8.798;2023-02-18T06:03:50;6.80;99.90
24384;DHT22;12504;52.870;8.798;2023-02-18T06:06:16;6.80;99.90
24384;DHT22;12504;52.870;8.798;2023-02-18T06:08:42;6.80;99.90
24384;DHT22;12504;52.870;8.798;2023-02-18T06:11:07;6.80;99.90
24384;DHT22;12504;52.870;8.798;2023-02-18T06:13:33;6.80;99.90
24384;DHT22;12504;52.870;8.798;2023-02-18T06:15:59;6.80;99.90
24384;DHT22;12504;52.870;8.798;2023-02-18T06:18:24;6.90;99.90
24384;DHT22;12504;52.870;8.798;2023-02-18T06:20:50;6.90;99.90
24384;DHT22;12504;52.870;8.798;2023-02-18T06:23:17;7.00;99.90
24384;DHT22;12504;52.870;8.798;2023-02-18T06:25:43;7.00;99.90
24384;DHT22;12504;52.870;8.798;2023-02-18T06:28:09;7.00;99.90
24384;DHT22;12504;52.870;8.798;2023-02-18T06:30:35;7.00;99.90
24384;DHT22;12504;52.870;8.798;2023-02-18T06:33:01;7.00;99.90
24384;DHT22;12504;52.870;8.798;2023-02-18T06:35:30;7.00;99.90
24384;DHT22;12504;52.870;8.798;2023-02-18T06:37:56;7.10;99.90
24384;DHT22;12504;52.870;8.798;2023-02-18T06:40:22;7.10;99.90
24384;DHT22;12504;52.870;8.798;2023-02-18T06:42:47;7.20;99.90
24384;DHT22;12504;52.870;8.798;2023-02-18T06:45:13;7.20;99.90
24384;DHT22;12504;52.870;8.798;2023-02-18T06:47:38;7.20;99.90
24384;DHT22;12504;52.870;8.798;2023-02-18T06:50:04;7.30;99.90
24384;DHT22;12504;52.870;8.798;2023-02-18T06:52:30;7.30;99.90
24384;DHT22;12504;52.870;8.798;2023-02-18T06:54:58;7.40;99.90
24384;DHT22;12504;52.870;8.798;2023-02-18T06:57:23;7.40;99.90
24384;DHT22;12504;52.870;8.798;2023-02-18T06:59:49;7.40;99.90
24384;DHT22;12504;52.870;8.798;2023-02-18T07:02:15;7.50;99.90
24384;DHT22;12504;52.870;8.798;2023-02-18T07:04:40;7.50;99.90
24384;DHT22;12504;52.870;8.798;2023-02-18T07:07:06;7.50;99.90
24384;DHT22;12504;52.870;8.798;2023-02-18T07:09:32;7.60;99.90
24384;DHT22;12504;52.870;8.798;2023-02-18T07:11:58;7.60;99.90
24384;DHT22;12504;52.870;8.798;2023-02-18T07:14:23;7.70;99.90
24384;DHT22;12504;52.870;8.798;2023-02-18T07:16:49;7.70;99.90
24384;DHT22;12504;52.870;8.798;2023-02-18T07:19:16;7.80;99.90
24384;DHT22;12504;52.870;8.798;2023-02-18T07:21:42;7.90;99.90
24384;DHT22;12504;52.870;8.798;2023-02-18T07:24:07;7.90;99.90
24384;DHT22;12504;52.870;8.798;2023-02-18T07:26:33;7.90;99.90
24384;DHT22;12504;52.870;8.798;2023-02-18T07:28:59;7.90;99.90
24384;DHT22;12504;52.870;8.798;2023-02-18T07:31:24;8.00;99.90
24384;DHT22;12504;52.870;8.798;2023-02-18T07:33:50;8.00;99.90
24384;DHT22;12504;52.870;8.798;2023-02-18T07:36:16;8.00;99.90
24384;DHT22;12504;52.870;8.798;2023-02-18T07:38:41;8.00;99.90
24384;DHT22;12504;52.870;8.798;2023-02-18T07:41:15;8.00;99.90
24384;DHT22;12504;52.870;8.798;2023-02-18T07:43:41;8.00;99.90
24384;DHT22;12504;52.870;8.798;2023-02-18T07:46:07;8.00;99.90
24384;DHT22;12504;52.870;8.798;2023-02-18T07:48:32;8.20;99.90
24384;DHT22;12504;52.870;8.798;2023-02-18T07:50:58;8.30;99.90
24384;DHT22;12504;52.870;8.798;2023-02-18T07:53:24;8.20;99.90
24384;DHT22;12504;52.870;8.798;2023-02-18T07:55:49;8.20;99.90
24384;DHT22;12504;52.870;8.798;2023-02-18T08:00:41;8.60;99.90
24384;DHT22;12504;52.870;8.798;2023-02-18T08:03:07;8.50;99.90
24384;DHT22;12504;52.870;8.798;2023-02-18T08:05:33;8.40;99.90
24384;DHT22;12504;52.870;8.798;2023-02-18T08:07:59;8.80;99.90
24384;DHT22;12504;52.870;8.798;2023-02-18T08:10:24;8.70;99.90
24384;DHT22;12504;52.870;8.798;2023-02-18T08:12:50;8.70;99.90
24384;DHT22;12504;52.870;8.798;2023-02-18T08:15:16;8.80;99.90
24384;DHT22;12504;52.870;8.798;2023-02-18T08:17:41;8.90;99.90
24384;DHT22;12504;52.870;8.798;2023-02-18T08:20:08;8.90;99.90
24384;DHT22;12504;52.870;8.798;2023-02-18T08:22:40;9.00;99.90
24384;DHT22;12504;52.870;8.798;2023-02-18T08:25:06;9.00;99.90
24384;DHT22;12504;52.870;8.798;2023-02-18T08:27:32;9.20;99.90
24384;DHT22;12504;52.870;8.798;2023-02-18T08:30:01;9.20;99.90
24384;DHT22;12504;52.870;8.798;2023-02-18T08:32:27;9.30;99.90
24384;DHT22;12504;52.870;8.798;2023-02-18T08:34:55;9.40;99.90
24384;DHT22;12504;52.870;8.798;2023-02-18T08:37:21;9.40;99.90
24384;DHT22;12504;52.870;8.798;2023-02-18T08:39:50;9.50;99.90
24384;DHT22;12504;52.870;8.798;2023-02-18T08:42:16;9.50;99.90
24384;DHT22;12504;52.870;8.798;2023-02-18T08:44:45;9.50;99.90
24384;DHT22;12504;52.870;8.798;2023-02-18T08:47:14;9.60;99.90
24384;DHT22;12504;52.870;8.798;2023-02-18T08:49:44;9.70;99.90
24384;DHT22;12504;52.870;8.798;2023-02-18T08:52:10;9.70;99.90
24384;DHT22;12504;52.870;8.798;2023-02-18T08:54:39;9.70;99.90
24384;DHT22;12504;52.870;8.798;2023-02-18T08:57:05;9.70;99.90
24384;DHT22;12504;52.870;8.798;2023-02-18T08:59:33;9.70;99.90
24384;DHT22;12504;52.870;8.798;2023-02-18T09:02:00;9.80;99.90
24384;DHT22;12504;52.870;8.798;2023-02-18T09:04:26;9.80;99.90
24384;DHT22;12504;52.870;8.798;2023-02-18T09:06:53;9.80;99.90
24384;DHT22;12504;52.870;8.798;2023-02-18T09:09:20;9.90;99.90
24384;DHT22;12504;52.870;8.798;2023-02-18T09:11:49;9.90;99.90
24384;DHT22;12504;52.870;8.798;2023-02-18T09:14:16;9.90;99.90
24384;DHT22;12504;52.870;8.798;2023-02-18T09:16:42;9.90;99.90
24384;DHT22;12504;52.870;8.798;2023-02-18T09:19:09;9.90;99.90
24384;DHT22;12504;52.870;8.798;2023-02-18T09:21:35;10.00;99.90
24384;DHT22;12504;52.870;8.798;2023-02-18T09:24:01;10.00;99.90
24384;DHT22;12504;52.870;8.798;2023-02-18T09:26:27;10.00;99.90
24384;DHT22;12504;52.870;8.798;2023-02-18T09:28:55;10.00;99.90
24384;DHT22;12504;52.870;8.798;2023-02-18T09:31:23;10.00;99.90
24384;DHT22;12504;52.870;8.798;2023-02-18T09:34:08;10.00;99.90
24384;DHT22;12504;52.870;8.798;2023-02-18T09:36:34;10.00;99.90
24384;DHT22;12504;52.870;8.798;2023-02-18T09:39:00;10.00;99.90
24384;DHT22;12504;52.870;8.798;2023-02-18T09:41:47;10.00;99.90
24384;DHT22;12504;52.870;8.798;2023-02-18T09:44:18;10.10;99.90
24384;DHT22;12504;52.870;8.798;2023-02-18T09:46:50;10.00;99.90
24384;DHT22;12504;52.870;8.798;2023-02-18T09:49:20;10.00;99.90
24384;DHT22;12504;52.870;8.798;2023-02-18T09:51:46;10.00;99.90
24384;DHT22;12504;52.870;8.798;2023-02-18T09:54:16;10.00;99.90
24384;DHT22;12504;52.870;8.798;2023-02-18T09:56:44;10.00;99.90
24384;DHT22;12504;52.870;8.798;2023-02-18T09:59:17;10.00;99.90
24384;DHT22;12504;52.870;8.798;2023-02-18T10:01:45;9.90;99.90
24384;DHT22;12504;52.870;8.798;2023-02-18T10:04:26;9.90;99.90
24384;DHT22;12504;52.870;8.798;2023-02-18T10:06:55;9.90;99.90
24384;DHT22;12504;52.870;8.798;2023-02-18T10:09:29;9.80;99.90
24384;DHT22;12504;52.870;8.798;2023-02-18T10:12:15;9.80;99.90
24384;DHT22;12504;52.870;8.798;2023-02-18T10:14:42;9.80;99.90
24384;DHT22;12504;52.870;8.798;2023-02-18T10:17:11;9.90;99.90
24384;DHT22;12504;52.870;8.798;2023-02-18T10:19:39;9.80;99.90
24384;DHT22;12504;52.870;8.798;2023-02-18T10:22:10;9.90;99.90
24384;DHT22;12504;52.870;8.798;2023-02-18T10:24:40;9.80;99.90
24384;DHT22;12504;52.870;8.798;2023-02-18T10:27:08;9.90;99.90
24384;DHT22;12504;52.870;8.798;2023-02-18T10:29:34;9.90;99.90
24384;DHT22;12504;52.870;8.798;2023-02-18T10:32:30;10.00;99.90
24384;DHT22;12504;52.870;8.798;2023-02-18T10:35:37;10.00;99.90
24384;DHT22;12504;52.870;8.798;2023-02-18T10:41:22;9.90;99.90
24384;DHT22;12504;52.870;8.798;2023-02-18T10:44:05;9.90;99.90
24384;DHT22;12504;52.870;8.798;2023-02-18T10:46:59;9.90;99.90
24384;DHT22;12504;52.870;8.798;2023-02-18T10:49:47;10.00;99.90
24384;DHT22;12504;52.870;8.798;2023-02-18T10:52:17;10.00;99.90
24384;DHT22;12504;52.870;8.798;2023-02-18T10:57:25;10.00;99.90
24384;DHT22;12504;52.870;8.798;2023-02-18T11:02:31;10.00;99.90
24384;DHT22;12504;52.870;8.798;2023-02-18T11:04:59;10.00;99.90
24384;DHT22;12504;52.870;8.798;2023-02-18T11:07:33;9.90;99.90
24384;DHT22;12504;52.870;8.798;2023-02-18T11:10:08;9.90;99.90
24384;DHT22;12504;52.870;8.798;2023-02-18T11:12:45;9.90;99.90
24384;DHT22;12504;52.870;8.798;2023-02-18T11:17:41;9.90;99.90
24384;DHT22;12504;52.870;8.798;2023-02-18T11:20:35;9.90;99.90
24384;DHT22;12504;52.870;8.798;2023-02-18T11:25:32;9.90;99.90
24384;DHT22;12504;52.870;8.798;2023-02-18T11:28:02;9.90;99.90
24384;DHT22;12504;52.870;8.798;2023-02-18T11:30:43;9.90;99.90
24384;DHT22;12504;52.870;8.798;2023-02-18T11:33:28;9.90;99.90
24384;DHT22;12504;52.870;8.798;2023-02-18T11:35:57;9.90;99.90
24384;DHT22;12504;52.870;8.798;2023-02-18T11:38:45;9.90;99.90
24384;DHT22;12504;52.870;8.798;2023-02-18T11:41:15;9.90;99.90
24384;DHT22;12504;52.870;8.798;2023-02-18T11:43:44;9.80;99.90
24384;DHT22;12504;52.870;8.798;2023-02-18T11:48:41;9.80;99.90
24384;DHT22;12504;52.870;8.798;2023-02-18T11:51:27;9.80;99.90
24384;DHT22;12504;52.870;8.798;2023-02-18T11:54:40;9.80;99.90
24384;DHT22;12504;52.870;8.798;2023-02-18T11:57:02;9.80;99.90
24384;DHT22;12504;52.870;8.798;2023-02-18T11:59:31;9.80;99.90
24384;DHT22;12504;52.870;8.798;2023-02-18T12:04:40;9.70;99.90
24384;DHT22;12504;52.870;8.798;2023-02-18T12:07:27;9.70;99.90
24384;DHT22;12504;52.870;8.798;2023-02-18T12:09:59;9.70;99.90
24384;DHT22;12504;52.870;8.798;2023-02-18T12:13:02;9.60;99.90
24384;DHT22;12504;52.870;8.798;2023-02-18T12:18:33;9.60;99.90
24384;DHT22;12504;52.870;8.798;2023-02-18T12:21:29;9.60;99.90
24384;DHT22;12504;52.870;8.798;2023-02-18T12:32:15;9.60;99.90
24384;DHT22;12504;52.870;8.798;2023-02-18T12:43:29;9.70;99.90
24384;DHT22;12504;52.870;8.798;2023-02-18T12:49:34;9.60;99.90
24384;DHT22;12504;52.870;8.798;2023-02-18T12:54:30;9.60;99.90
24384;DHT22;12504;52.870;8.798;2023-02-18T12:57:21;9.60;99.90
24384;DHT22;12504;52.870;8.798;2023-02-18T13:00:10;9.70;99.90
24384;DHT22;12504;52.870;8.798;2023-02-18T13:14:17;9.70;99.90
24384;DHT22;12504;52.870;8.798;2023-02-18T13:16:47;9.70;99.90
24384;DHT22;12504;52.870;8.798;2023-02-18T13:19:28;9.70;99.90
24384;DHT22;12504;52.870;8.798;2023-02-18T13:21:59;9.70;99.90
24384;DHT22;12504;52.870;8.798;2023-02-18T13:24:35;9.70;99.90
24384;DHT22;12504;52.870;8.798;2023-02-18T13:29:39;9.70;99.90
24384;DHT22;12504;52.870;8.798;2023-02-18T13:32:37;9.70;99.90
24384;DHT22;12504;52.870;8.798;2023-02-18T13:35:25;9.70;99.90
24384;DHT22;12504;52.870;8.798;2023-02-18T13:41:04;9.70;99.90
24384;DHT22;12504;52.870;8.798;2023-02-18T13:43:33;9.70;99.90
24384;DHT22;12504;52.870;8.798;2023-02-18T13:46:18;9.80;99.90
24384;DHT22;12504;52.870;8.798;2023-02-18T13:48:48;9.80;99.90
24384;DHT22;12504;52.870;8.798;2023-02-18T13:54:17;9.80;99.90
24384;DHT22;12504;52.870;8.798;2023-02-18T13:56:49;9.80;99.90
24384;DHT22;12504;52.870;8.798;2023-02-18T13:59:44;9.80;99.90
24384;DHT22;12504;52.870;8.798;2023-02-18T14:04:53;9.70;99.90
24384;DHT22;12504;52.870;8.798;2023-02-18T14:07:43;9.80;99.90
24384;DHT22;12504;52.870;8.798;2023-02-18T14:25:56;9.70;99.90
24384;DHT22;12504;52.870;8.798;2023-02-18T14:33:38;9.70;99.90
24384;DHT22;12504;52.870;8.798;2023-02-18T14:39:00;9.70;99.90
24384;DHT22;12504;52.870;8.798;2023-02-18T14:41:43;9.70;99.90
24384;DHT22;12504;52.870;8.798;2023-02-18T14:44:27;9.70;99.90
24384;DHT22;12504;52.870;8.798;2023-02-18T14:49:58;9.70;99.90
24384;DHT22;12504;52.870;8.798;2023-02-18T14:52:33;9.70;99.90
24384;DHT22;12504;52.870;8.798;2023-02-18T14:55:04;9.70;99.90
24384;DHT22;12504;52.870;8.798;2023-02-18T14:57:55;9.70;99.90
24384;DHT22;12504;52.870;8.798;2023-02-18T15:00:23;9.70;99.90
24384;DHT22;12504;52.870;8.798;2023-02-18T15:02:52;9.70;99.90
24384;DHT22;12504;52.870;8.798;2023-02-18T15:05:21;9.60;99.90
24384;DHT22;12504;52.870;8.798;2023-02-18T15:13:06;9.60;99.90
24384;DHT22;12504;52.870;8.798;2023-02-18T15:15:33;9.70;99.90
24384;DHT22;12504;52.870;8.798;2023-02-18T15:18:02;9.70;99.90
24384;DHT22;12504;52.870;8.798;2023-02-18T15:20:31;9.70;99.90
24384;DHT22;12504;52.870;8.798;2023-02-18T15:22:58;9.70;99.90
24384;DHT22;12504;52.870;8.798;2023-02-18T15:25:24;9.70;99.90
24384;DHT22;12504;52.870;8.798;2023-02-18T15:27:51;9.70;99.90
24384;DHT22;12504;52.870;8.798;2023-02-18T15:30:18;9.70;99.90
24384;DHT22;12504;52.870;8.798;2023-02-18T15:33:10;9.70;99.90
24384;DHT22;12504;52.870;8.798;2023-02-18T15:35:40;9.70;99.90
24384;DHT22;12504;52.870;8.798;2023-02-18T15:38:14;9.60;99.90
24384;DHT22;12504;52.870;8.798;2023-02-18T15:40:40;9.60;99.90
24384;DHT22;12504;52.870;8.798;2023-02-18T15:43:07;9.60;99.90
24384;DHT22;12504;52.870;8.798;2023-02-18T15:45:36;9.60;99.90
24384;DHT22;12504;52.870;8.798;2023-02-18T15:48:03;9.50;99.90
24384;DHT22;12504;52.870;8.798;2023-02-18T15:50:44;9.50;99.90
24384;DHT22;12504;52.870;8.798;2023-02-18T15:53:15;9.50;99.90
24384;DHT22;12504;52.870;8.798;2023-02-18T15:55:46;9.40;99.90
24384;DHT22;12504;52.870;8.798;2023-02-18T15:58:28;9.40;99.90
24384;DHT22;12504;52.870;8.798;2023-02-18T16:01:03;9.40;99.90
24384;DHT22;12504;52.870;8.798;2023-02-18T16:03:34;9.30;99.90
24384;DHT22;12504;52.870;8.798;2023-02-18T16:06:24;9.40;99.90
24384;DHT22;12504;52.870;8.798;2023-02-18T16:09:24;9.30;99.90
24384;DHT22;12504;52.870;8.798;2023-02-18T16:11:57;9.40;99.90
24384;DHT22;12504;52.870;8.798;2023-02-18T16:14:31;9.40;99.90
24384;DHT22;12504;52.870;8.798;2023-02-18T16:17:05;9.40;99.90
24384;DHT22;12504;52.870;8.798;2023-02-18T16:19:32;9.40;99.90
24384;DHT22;12504;52.870;8.798;2023-02-18T16:22:04;9.40;99.90
24384;DHT22;12504;52.870;8.798;2023-02-18T16:24:37;9.40;99.90
24384;DHT22;12504;52.870;8.798;2023-02-18T16:27:07;9.40;99.90
24384;DHT22;12504;52.870;8.798;2023-02-18T16:29:39;9.40;99.90
24384;DHT22;12504;52.870;8.798;2023-02-18T16:32:05;9.40;99.90
24384;DHT22;12504;52.870;8.798;2023-02-18T16:34:31;9.40;99.90
24384;DHT22;12504;52.870;8.798;2023-02-18T16:36:57;9.40;99.90
24384;DHT22;12504;52.870;8.798;2023-02-18T16:39:42;9.40;99.90
24384;DHT22;12504;52.870;8.798;2023-02-18T16:42:11;9.40;99.90
24384;DHT22;12504;52.870;8.798;2023-02-18T16:44:38;9.40;99.90
24384;DHT22;12504;52.870;8.798;2023-02-18T16:47:04;9.40;99.90
24384;DHT22;12504;52.870;8.798;2023-02-18T16:49:32;9.40;99.90
24384;DHT22;12504;52.870;8.798;2023-02-18T16:52:00;9.30;99.90
24384;DHT22;12504;52.870;8.798;2023-02-18T16:54:30;9.20;99.90
24384;DHT22;12504;52.870;8.798;2023-02-18T16:56:55;9.10;99.90
24384;DHT22;12504;52.870;8.798;2023-02-18T16:59:21;9.00;99.90
24384;DHT22;12504;52.870;8.798;2023-02-18T17:01:47;8.90;99.90
24384;DHT22;12504;52.870;8.798;2023-02-18T17:04:17;8.90;99.90
24384;DHT22;12504;52.870;8.798;2023-02-18T17:06:44;8.80;99.90
24384;DHT22;12504;52.870;8.798;2023-02-18T17:09:13;8.80;99.90
24384;DHT22;12504;52.870;8.798;2023-02-18T17:11:41;8.70;99.90
24384;DHT22;12504;52.870;8.798;2023-02-18T17:14:12;8.70;99.90
24384;DHT22;12504;52.870;8.798;2023-02-18T17:16:38;8.80;99.90
24384;DHT22;12504;52.870;8.798;2023-02-18T17:19:04;8.70;99.90
24384;DHT22;12504;52.870;8.798;2023-02-18T17:21:29;8.70;99.90
24384;DHT22;12504;52.870;8.798;2023-02-18T17:23:55;8.70;99.90
24384;DHT22;12504;52.870;8.798;2023-02-18T17:26:26;8.70;99.90
24384;DHT22;12504;52.870;8.798;2023-02-18T17:28:54;8.80;99.90
24384;DHT22;12504;52.870;8.798;2023-02-18T17:31:29;8.80;99.90
24384;DHT22;12504;52.870;8.798;2023-02-18T17:33:58;8.80;99.90
24384;DHT22;12504;52.870;8.798;2023-02-18T17:36:25;8.90;99.90
24384;DHT22;12504;52.870;8.798;2023-02-18T17:38:51;8.90;99.90
24384;DHT22;12504;52.870;8.798;2023-02-18T17:41:17;8.90;99.90
24384;DHT22;12504;52.870;8.798;2023-02-18T17:43:43;8.90;99.90
24384;DHT22;12504;52.870;8.798;2023-02-18T17:46:12;8.90;99.90
24384;DHT22;12504;52.870;8.798;2023-02-18T17:48:39;8.90;99.90
24384;DHT22;12504;52.870;8.798;2023-02-18T17:51:05;8.90;99.90
24384;DHT22;12504;52.870;8.798;2023-02-18T17:53:35;9.00;99.90
24384;DHT22;12504;52.870;8.798;2023-02-18T17:56:00;8.90;99.90
24384;DHT22;12504;52.870;8.798;2023-02-18T17:58:26;8.90;99.90
24384;DHT22;12504;52.870;8.798;2023-02-18T18:00:54;8.90;99.90
24384;DHT22;12504;52.870;8.798;2023-02-18T18:03:21;8.90;99.90
24384;DHT22;12504;52.870;8.798;2023-02-18T18:05:49;8.80;99.90
24384;DHT22;12504;52.870;8.798;2023-02-18T18:08:17;8.80;99.90
24384;DHT22;12504;52.870;8.798;2023-02-18T18:10:48;8.80;99.90